PWSweather.com
Personal Weather Stations
Station Observations
KC4KQE
Superstition Mountains, Apache Junction, AZ 85119

Superstition MountainsApache Junction, AZ 85119

Lat: 33.41578, Lon: -111.49328

Elevation: 1850

Station Type: Davis Vantage Pro2 Plus

http://kc4kqe.org/

High Low Average
Temperature 83.1°F28.4°C 49.7°F9.8°C 67.9°F19.9°C
Dew Point 37.0°F2.8°C 25.9°F-3.4°C 31.1°F-0.5°C
Winds 6.0 mph 9.7 kmh Calm Calm Calm SSECalm SSE
Wind Gusts 18.0 mph29.0 kmh -- 1.0 mph1.6 kmh
Humidity 53% 13% 29%
Pressure 29.99 in1015.6 mb 29.82 in1009.8 mb -
Precipitation 0.00 in0.0 mm - -
Hour Temp Dew Point Humidity Winds Wind Gusts Pressure Precip Precip Rate Daily Precip Total
12:00 AM 57.1°F13.9°C 33.0°F0.6°C 40% Calm Calm -- 29.95 in1014.2 mb 0.00 in0.0 mm 0.00 in0.0 mm 0.00 in0.0 mm
12:05 AM 56.9°F13.8°C 32.8°F0.4°C 40% Calm Calm -- 29.96 in1014.6 mb 0.00 in0.0 mm 0.00 in0.0 mm 0.00 in0.0 mm
12:10 AM 56.6°F13.7°C 33.1°F0.6°C 41% Calm Calm -- 29.96 in1014.6 mb 0.00 in0.0 mm 0.00 in0.0 mm 0.00 in0.0 mm
12:15 AM 56.3°F13.5°C 32.9°F0.5°C 41% Calm Calm -- 29.96 in1014.6 mb 0.00 in0.0 mm 0.00 in0.0 mm 0.00 in0.0 mm
12:20 AM 55.9°F13.3°C 32.5°F0.3°C 41% Calm Calm -- 29.96 in1014.6 mb 0.00 in0.0 mm 0.00 in0.0 mm 0.00 in0.0 mm
12:25 AM 55.7°F13.2°C 32.9°F0.5°C 42% Calm Calm -- 29.96 in1014.6 mb 0.00 in0.0 mm 0.00 in0.0 mm 0.00 in0.0 mm
12:30 AM 55.5°F13.1°C 32.7°F0.4°C 42% Calm Calm -- 29.96 in1014.6 mb 0.00 in0.0 mm 0.00 in0.0 mm 0.00 in0.0 mm
12:35 AM 55.3°F12.9°C 33.1°F0.6°C 43% Calm Calm -- 29.96 in1014.6 mb 0.00 in0.0 mm 0.00 in0.0 mm 0.00 in0.0 mm
12:40 AM 55.0°F12.8°C 32.9°F0.5°C 43% Calm Calm -- 29.96 in1014.6 mb 0.00 in0.0 mm 0.00 in0.0 mm 0.00 in0.0 mm
12:45 AM 54.9°F12.7°C 32.8°F0.4°C 43% Calm Calm -- 29.96 in1014.6 mb 0.00 in0.0 mm 0.00 in0.0 mm 0.00 in0.0 mm
12:50 AM 54.9°F12.7°C 32.8°F0.4°C 43% Calm Calm -- 29.96 in1014.6 mb 0.00 in0.0 mm 0.00 in0.0 mm 0.00 in0.0 mm
12:55 AM 54.9°F12.7°C 32.8°F0.4°C 43% Calm Calm -- 29.95 in1014.2 mb 0.00 in0.0 mm 0.00 in0.0 mm 0.00 in0.0 mm
01:00 AM 54.9°F12.7°C 32.8°F0.4°C 43% Calm Calm -- 29.95 in1014.2 mb 0.00 in0.0 mm 0.00 in0.0 mm 0.00 in0.0 mm
01:05 AM 54.8°F12.7°C 32.7°F0.4°C 43% Calm Calm -- 29.95 in1014.2 mb 0.00 in0.0 mm 0.00 in0.0 mm 0.00 in0.0 mm
01:10 AM 54.8°F12.7°C 32.7°F0.4°C 43% Calm Calm -- 29.95 in1014.2 mb 0.00 in0.0 mm 0.00 in0.0 mm 0.00 in0.0 mm
01:15 AM 54.7°F12.6°C 32.6°F0.3°C 43% Calm Calm -- 29.95 in1014.2 mb 0.00 in0.0 mm 0.00 in0.0 mm 0.00 in0.0 mm
01:20 AM 54.5°F12.5°C 32.4°F0.2°C 43% Calm Calm -- 29.95 in1014.2 mb 0.00 in0.0 mm 0.00 in0.0 mm 0.00 in0.0 mm
01:25 AM 54.4°F12.4°C 32.3°F0.2°C 43% Calm Calm -- 29.94 in1013.9 mb 0.00 in0.0 mm 0.00 in0.0 mm 0.00 in0.0 mm
01:30 AM 54.2°F12.3°C 32.1°F0.1°C 43% Calm Calm -- 29.94 in1013.9 mb 0.00 in0.0 mm 0.00 in0.0 mm 0.00 in0.0 mm
01:35 AM 54.0°F12.2°C 32.5°F0.3°C 44% Calm Calm -- 29.94 in1013.9 mb 0.00 in0.0 mm 0.00 in0.0 mm 0.00 in0.0 mm
01:40 AM 53.9°F12.2°C 32.4°F0.2°C 44% Calm Calm -- 29.94 in1013.9 mb 0.00 in0.0 mm 0.00 in0.0 mm 0.00 in0.0 mm
01:45 AM 53.7°F12.1°C 32.3°F0.2°C 44% Calm Calm -- 29.94 in1013.9 mb 0.00 in0.0 mm 0.00 in0.0 mm 0.00 in0.0 mm
01:50 AM 53.6°F12.0°C 32.7°F0.4°C 45% Calm Calm -- 29.94 in1013.9 mb 0.00 in0.0 mm 0.00 in0.0 mm 0.00 in0.0 mm
01:55 AM 53.5°F11.9°C 32.6°F0.3°C 45% Calm Calm -- 29.94 in1013.9 mb 0.00 in0.0 mm 0.00 in0.0 mm 0.00 in0.0 mm
02:00 AM 53.5°F11.9°C 32.6°F0.3°C 45% Calm Calm -- 29.95 in1014.2 mb 0.00 in0.0 mm 0.00 in0.0 mm 0.00 in0.0 mm
02:05 AM 53.5°F11.9°C 32.6°F0.3°C 45% Calm Calm -- 29.95 in1014.2 mb 0.00 in0.0 mm 0.00 in0.0 mm 0.00 in0.0 mm
02:10 AM 53.5°F11.9°C 32.6°F0.3°C 45% Calm Calm -- 29.95 in1014.2 mb 0.00 in0.0 mm 0.00 in0.0 mm 0.00 in0.0 mm
02:15 AM 53.4°F11.9°C 32.5°F0.3°C 45% Calm Calm -- 29.95 in1014.2 mb 0.00 in0.0 mm 0.00 in0.0 mm 0.00 in0.0 mm
02:20 AM 53.4°F11.9°C 32.5°F0.3°C 45% Calm Calm -- 29.95 in1014.2 mb 0.00 in0.0 mm 0.00 in0.0 mm 0.00 in0.0 mm
02:25 AM 53.3°F11.8°C 32.5°F0.3°C 45% Calm Calm -- 29.95 in1014.2 mb 0.00 in0.0 mm 0.00 in0.0 mm 0.00 in0.0 mm
02:30 AM 53.3°F11.8°C 32.5°F0.3°C 45% Calm Calm -- 29.95 in1014.2 mb 0.00 in0.0 mm 0.00 in0.0 mm 0.00 in0.0 mm
02:35 AM 53.2°F11.8°C 32.4°F0.2°C 45% Calm Calm -- 29.95 in1014.2 mb 0.00 in0.0 mm 0.00 in0.0 mm 0.00 in0.0 mm
02:40 AM 53.1°F11.7°C 32.3°F0.2°C 45% Calm Calm -- 29.95 in1014.2 mb 0.00 in0.0 mm 0.00 in0.0 mm 0.00 in0.0 mm
02:45 AM 53.0°F11.7°C 32.7°F0.4°C 46% Calm Calm -- 29.95 in1014.2 mb 0.00 in0.0 mm 0.00 in0.0 mm 0.00 in0.0 mm
02:50 AM 53.0°F11.7°C 32.7°F0.4°C 46% Calm Calm -- 29.95 in1014.2 mb 0.00 in0.0 mm 0.00 in0.0 mm 0.00 in0.0 mm
02:55 AM 52.9°F11.6°C 32.6°F0.3°C 46% Calm Calm -- 29.95 in1014.2 mb 0.00 in0.0 mm 0.00 in0.0 mm 0.00 in0.0 mm
03:00 AM 52.8°F11.6°C 33.1°F0.6°C 47% Calm Calm -- 29.95 in1014.2 mb 0.00 in0.0 mm 0.00 in0.0 mm 0.00 in0.0 mm
03:05 AM 52.7°F11.5°C 33.0°F0.6°C 47% Calm Calm -- 29.95 in1014.2 mb 0.00 in0.0 mm 0.00 in0.0 mm 0.00 in0.0 mm
03:10 AM 52.6°F11.4°C 32.9°F0.5°C 47% Calm Calm -- 29.95 in1014.2 mb 0.00 in0.0 mm 0.00 in0.0 mm 0.00 in0.0 mm
03:15 AM 52.6°F11.4°C 32.9°F0.5°C 47% Calm Calm -- 29.95 in1014.2 mb 0.00 in0.0 mm 0.00 in0.0 mm 0.00 in0.0 mm
03:20 AM 52.5°F11.4°C 32.8°F0.4°C 47% Calm Calm -- 29.95 in1014.2 mb 0.00 in0.0 mm 0.00 in0.0 mm 0.00 in0.0 mm
03:25 AM 52.3°F11.3°C 32.6°F0.3°C 47% Calm Calm -- 29.95 in1014.2 mb 0.00 in0.0 mm 0.00 in0.0 mm 0.00 in0.0 mm
03:30 AM 52.2°F11.2°C 33.1°F0.6°C 48% Calm Calm -- 29.94 in1013.9 mb 0.00 in0.0 mm 0.00 in0.0 mm 0.00 in0.0 mm
03:35 AM 52.2°F11.2°C 33.1°F0.6°C 48% Calm Calm -- 29.95 in1014.2 mb 0.00 in0.0 mm 0.00 in0.0 mm 0.00 in0.0 mm
03:40 AM 52.1°F11.2°C 33.0°F0.6°C 48% Calm Calm -- 29.95 in1014.2 mb 0.00 in0.0 mm 0.00 in0.0 mm 0.00 in0.0 mm
03:45 AM 52.0°F11.1°C 33.4°F0.8°C 49% Calm Calm -- 29.95 in1014.2 mb 0.00 in0.0 mm 0.00 in0.0 mm 0.00 in0.0 mm
03:50 AM 51.8°F11.0°C 33.2°F0.7°C 49% Calm Calm -- 29.95 in1014.2 mb 0.00 in0.0 mm 0.00 in0.0 mm 0.00 in0.0 mm
03:55 AM 51.6°F10.9°C 33.0°F0.6°C 49% Calm Calm -- 29.95 in1014.2 mb 0.00 in0.0 mm 0.00 in0.0 mm 0.00 in0.0 mm
04:00 AM 51.4°F10.8°C 32.8°F0.4°C 49% Calm Calm -- 29.95 in1014.2 mb 0.00 in0.0 mm 0.00 in0.0 mm 0.00 in0.0 mm
04:05 AM 51.2°F10.7°C 33.2°F0.7°C 50% Calm Calm -- 29.95 in1014.2 mb 0.00 in0.0 mm 0.00 in0.0 mm 0.00 in0.0 mm
04:10 AM 51.0°F10.6°C 33.0°F0.6°C 50% Calm Calm -- 29.95 in1014.2 mb 0.00 in0.0 mm 0.00 in0.0 mm 0.00 in0.0 mm
04:15 AM 50.8°F10.4°C 32.8°F0.4°C 50% Calm Calm -- 29.95 in1014.2 mb 0.00 in0.0 mm 0.00 in0.0 mm 0.00 in0.0 mm
04:20 AM 50.7°F10.4°C 32.7°F0.4°C 50% Calm Calm -- 29.95 in1014.2 mb 0.00 in0.0 mm 0.00 in0.0 mm 0.00 in0.0 mm
04:25 AM 50.6°F10.3°C 32.6°F0.3°C 50% Calm Calm -- 29.95 in1014.2 mb 0.00 in0.0 mm 0.00 in0.0 mm 0.00 in0.0 mm
04:30 AM 50.6°F10.3°C 32.6°F0.3°C 50% Calm Calm -- 29.95 in1014.2 mb 0.00 in0.0 mm 0.00 in0.0 mm 0.00 in0.0 mm
04:35 AM 50.5°F10.3°C 32.5°F0.3°C 50% Calm Calm -- 29.95 in1014.2 mb 0.00 in0.0 mm 0.00 in0.0 mm 0.00 in0.0 mm
04:40 AM 50.4°F10.2°C 32.4°F0.2°C 50% Calm Calm -- 29.95 in1014.2 mb 0.00 in0.0 mm 0.00 in0.0 mm 0.00 in0.0 mm
04:45 AM 50.2°F10.1°C 32.7°F0.4°C 51% Calm Calm -- 29.95 in1014.2 mb 0.00 in0.0 mm 0.00 in0.0 mm 0.00 in0.0 mm
04:50 AM 50.1°F10.1°C 32.6°F0.3°C 51% Calm Calm -- 29.95 in1014.2 mb 0.00 in0.0 mm 0.00 in0.0 mm 0.00 in0.0 mm
04:55 AM 50.0°F10.0°C 32.5°F0.3°C 51% Calm Calm -- 29.95 in1014.2 mb 0.00 in0.0 mm 0.00 in0.0 mm 0.00 in0.0 mm
05:00 AM 49.9°F9.9°C 32.4°F0.2°C 51% Calm Calm -- 29.95 in1014.2 mb 0.00 in0.0 mm 0.00 in0.0 mm 0.00 in0.0 mm
05:05 AM 49.9°F9.9°C 32.9°F0.5°C 52% Calm Calm -- 29.95 in1014.2 mb 0.00 in0.0 mm 0.00 in0.0 mm 0.00 in0.0 mm
05:10 AM 49.9°F9.9°C 32.9°F0.5°C 52% Calm Calm -- 29.95 in1014.2 mb 0.00 in0.0 mm 0.00 in0.0 mm 0.00 in0.0 mm
05:15 AM 50.0°F10.0°C 33.0°F0.6°C 52% Calm Calm -- 29.95 in1014.2 mb 0.00 in0.0 mm 0.00 in0.0 mm 0.00 in0.0 mm
05:20 AM 50.1°F10.1°C 33.1°F0.6°C 52% Calm Calm -- 29.95 in1014.2 mb 0.00 in0.0 mm 0.00 in0.0 mm 0.00 in0.0 mm
05:25 AM 50.2°F10.1°C 32.7°F0.4°C 51% Calm Calm -- 29.95 in1014.2 mb 0.00 in0.0 mm 0.00 in0.0 mm 0.00 in0.0 mm
05:30 AM 50.2°F10.1°C 32.7°F0.4°C 51% Calm Calm -- 29.95 in1014.2 mb 0.00 in0.0 mm 0.00 in0.0 mm 0.00 in0.0 mm
05:35 AM 50.2°F10.1°C 32.7°F0.4°C 51% Calm Calm -- 29.95 in1014.2 mb 0.00 in0.0 mm 0.00 in0.0 mm 0.00 in0.0 mm
05:40 AM 50.2°F10.1°C 32.7°F0.4°C 51% Calm Calm -- 29.95 in1014.2 mb 0.00 in0.0 mm 0.00 in0.0 mm 0.00 in0.0 mm
05:45 AM 50.1°F10.1°C 32.6°F0.3°C 51% Calm Calm -- 29.95 in1014.2 mb 0.00 in0.0 mm 0.00 in0.0 mm 0.00 in0.0 mm
05:50 AM 50.1°F10.1°C 32.6°F0.3°C 51% Calm Calm -- 29.95 in1014.2 mb 0.00 in0.0 mm 0.00 in0.0 mm 0.00 in0.0 mm
05:55 AM 50.0°F10.0°C 33.0°F0.6°C 52% Calm Calm -- 29.96 in1014.6 mb 0.00 in0.0 mm 0.00 in0.0 mm 0.00 in0.0 mm
06:00 AM 50.0°F10.0°C 33.0°F0.6°C 52% Calm Calm -- 29.96 in1014.6 mb 0.00 in0.0 mm 0.00 in0.0 mm 0.00 in0.0 mm
06:05 AM 49.9°F9.9°C 32.9°F0.5°C 52% Calm Calm -- 29.96 in1014.6 mb 0.00 in0.0 mm 0.00 in0.0 mm 0.00 in0.0 mm
06:10 AM 49.8°F9.9°C 33.3°F0.7°C 53% Calm Calm -- 29.96 in1014.6 mb 0.00 in0.0 mm 0.00 in0.0 mm 0.00 in0.0 mm
06:15 AM 49.7°F9.8°C 33.2°F0.7°C 53% Calm Calm -- 29.96 in1014.6 mb 0.00 in0.0 mm 0.00 in0.0 mm 0.00 in0.0 mm
06:20 AM 49.7°F9.8°C 33.2°F0.7°C 53% Calm Calm -- 29.96 in1014.6 mb 0.00 in0.0 mm 0.00 in0.0 mm 0.00 in0.0 mm
06:25 AM 49.7°F9.8°C 33.2°F0.7°C 53% Calm Calm -- 29.96 in1014.6 mb 0.00 in0.0 mm 0.00 in0.0 mm 0.00 in0.0 mm
06:30 AM 49.7°F9.8°C 33.2°F0.7°C 53% Calm Calm -- 29.96 in1014.6 mb 0.00 in0.0 mm 0.00 in0.0 mm 0.00 in0.0 mm
06:35 AM 49.9°F9.9°C 33.4°F0.8°C 53% Calm Calm -- 29.96 in1014.6 mb 0.00 in0.0 mm 0.00 in0.0 mm 0.00 in0.0 mm
06:40 AM 50.1°F10.1°C 33.1°F0.6°C 52% Calm Calm -- 29.96 in1014.6 mb 0.00 in0.0 mm 0.00 in0.0 mm 0.00 in0.0 mm
06:45 AM 50.8°F10.4°C 33.8°F1.0°C 52% Calm Calm -- 29.96 in1014.6 mb 0.00 in0.0 mm 0.00 in0.0 mm 0.00 in0.0 mm
06:50 AM 51.5°F10.8°C 33.9°F1.1°C 51% Calm Calm -- 29.97 in1014.9 mb 0.00 in0.0 mm 0.00 in0.0 mm 0.00 in0.0 mm
06:55 AM 52.5°F11.4°C 34.4°F1.3°C 50% Calm Calm -- 29.97 in1014.9 mb 0.00 in0.0 mm 0.00 in0.0 mm 0.00 in0.0 mm
07:00 AM 53.5°F11.9°C 34.8°F1.6°C 49% Calm Calm -- 29.97 in1014.9 mb 0.00 in0.0 mm 0.00 in0.0 mm 0.00 in0.0 mm
07:05 AM 54.4°F12.4°C 35.6°F2.0°C 49% Calm Calm -- 29.97 in1014.9 mb 0.00 in0.0 mm 0.00 in0.0 mm 0.00 in0.0 mm
07:10 AM 55.4°F13.0°C 35.5°F1.9°C 47% Calm Calm -- 29.97 in1014.9 mb 0.00 in0.0 mm 0.00 in0.0 mm 0.00 in0.0 mm
07:15 AM 56.5°F13.6°C 35.9°F2.2°C 46% Calm Calm -- 29.97 in1014.9 mb 0.00 in0.0 mm 0.00 in0.0 mm 0.00 in0.0 mm
07:20 AM 57.4°F14.1°C 36.2°F2.3°C 45% Calm Calm -- 29.98 in1015.2 mb 0.00 in0.0 mm 0.00 in0.0 mm 0.00 in0.0 mm
07:25 AM 58.2°F14.6°C 36.9°F2.7°C 45% Calm Calm -- 29.98 in1015.2 mb 0.00 in0.0 mm 0.00 in0.0 mm 0.00 in0.0 mm
07:30 AM 58.8°F14.9°C 36.9°F2.7°C 44% Calm Calm -- 29.98 in1015.2 mb 0.00 in0.0 mm 0.00 in0.0 mm 0.00 in0.0 mm
07:35 AM 59.6°F15.3°C 37.0°F2.8°C 43% Calm Calm -- 29.98 in1015.2 mb 0.00 in0.0 mm 0.00 in0.0 mm 0.00 in0.0 mm
07:40 AM 60.5°F15.8°C 36.0°F2.2°C 40% Calm Calm -- 29.98 in1015.2 mb 0.00 in0.0 mm 0.00 in0.0 mm 0.00 in0.0 mm
07:45 AM 61.7°F16.5°C 36.4°F2.4°C 39% Calm Calm -- 29.98 in1015.2 mb 0.00 in0.0 mm 0.00 in0.0 mm 0.00 in0.0 mm
07:50 AM 63.0°F17.2°C 36.3°F2.4°C 37% Calm Calm -- 29.99 in1015.6 mb 0.00 in0.0 mm 0.00 in0.0 mm 0.00 in0.0 mm
07:55 AM 64.9°F18.3°C 36.5°F2.5°C 35% Calm Calm -- 29.98 in1015.2 mb 0.00 in0.0 mm 0.00 in0.0 mm 0.00 in0.0 mm
08:00 AM 66.3°F19.1°C 37.0°F2.8°C 34% Calm Calm -- 29.98 in1015.2 mb 0.00 in0.0 mm 0.00 in0.0 mm 0.00 in0.0 mm
08:05 AM 67.7°F19.8°C 36.7°F2.6°C 32% Calm Calm -- 29.98 in1015.2 mb 0.00 in0.0 mm 0.00 in0.0 mm 0.00 in0.0 mm
08:10 AM 68.7°F20.4°C 36.0°F2.2°C 30% Calm Calm -- 29.99 in1015.6 mb 0.00 in0.0 mm 0.00 in0.0 mm 0.00 in0.0 mm
08:15 AM 69.6°F20.9°C 36.7°F2.6°C 30% Calm Calm -- 29.99 in1015.6 mb 0.00 in0.0 mm 0.00 in0.0 mm 0.00 in0.0 mm
08:20 AM 70.5°F21.4°C 35.8°F2.1°C 28% Calm Calm -- 29.99 in1015.6 mb 0.00 in0.0 mm 0.00 in0.0 mm 0.00 in0.0 mm
08:25 AM 71.3°F21.8°C 35.5°F1.9°C 27% Calm Calm -- 29.99 in1015.6 mb 0.00 in0.0 mm 0.00 in0.0 mm 0.00 in0.0 mm
08:30 AM 71.4°F21.9°C 34.7°F1.5°C 26% Calm Calm -- 29.99 in1015.6 mb 0.00 in0.0 mm 0.00 in0.0 mm 0.00 in0.0 mm
08:35 AM 71.2°F21.8°C 33.5°F0.8°C 25% Calm Calm -- 29.99 in1015.6 mb 0.00 in0.0 mm 0.00 in0.0 mm 0.00 in0.0 mm
08:40 AM 71.3°F21.8°C 33.6°F0.9°C 25% Calm Calm -- 29.99 in1015.6 mb 0.00 in0.0 mm 0.00 in0.0 mm 0.00 in0.0 mm
08:45 AM 71.9°F22.2°C 33.1°F0.6°C 24% Calm Calm 3.0 mph4.8 kmh 29.99 in1015.6 mb 0.00 in0.0 mm 0.00 in0.0 mm 0.00 in0.0 mm
08:50 AM 72.1°F22.3°C 32.2°F0.1°C 23% Calm Calm 3.0 mph4.8 kmh 29.99 in1015.6 mb 0.00 in0.0 mm 0.00 in0.0 mm 0.00 in0.0 mm
08:55 AM 72.5°F22.5°C 32.5°F0.3°C 23% Calm Calm -- 29.99 in1015.6 mb 0.00 in0.0 mm 0.00 in0.0 mm 0.00 in0.0 mm
09:00 AM 72.6°F22.6°C 32.6°F0.3°C 23% Calm Calm -- 29.98 in1015.2 mb 0.00 in0.0 mm 0.00 in0.0 mm 0.00 in0.0 mm
09:05 AM 72.7°F22.6°C 32.7°F0.4°C 23% Calm Calm -- 29.98 in1015.2 mb 0.00 in0.0 mm 0.00 in0.0 mm 0.00 in0.0 mm
09:10 AM 73.1°F22.8°C 31.9°F-0.1°C 22% Calm Calm 1.0 mph1.6 kmh 29.99 in1015.6 mb 0.00 in0.0 mm 0.00 in0.0 mm 0.00 in0.0 mm
09:15 AM 73.2°F22.9°C 32.0°F0.0°C 22% Calm Calm -- 29.99 in1015.6 mb 0.00 in0.0 mm 0.00 in0.0 mm 0.00 in0.0 mm
09:20 AM 73.2°F22.9°C 32.0°F0.0°C 22% Calm Calm -- 29.98 in1015.2 mb 0.00 in0.0 mm 0.00 in0.0 mm 0.00 in0.0 mm
09:25 AM 73.4°F23.0°C 31.0°F-0.6°C 21% Calm Calm -- 29.98 in1015.2 mb 0.00 in0.0 mm 0.00 in0.0 mm 0.00 in0.0 mm
09:30 AM 73.1°F22.8°C 30.8°F-0.7°C 21% Calm Calm -- 29.98 in1015.2 mb 0.00 in0.0 mm 0.00 in0.0 mm 0.00 in0.0 mm
09:35 AM 74.4°F23.6°C 33.0°F0.6°C 22% Calm Calm -- 29.98 in1015.2 mb 0.00 in0.0 mm 0.00 in0.0 mm 0.00 in0.0 mm
09:40 AM 74.7°F23.7°C 32.1°F0.1°C 21% Calm Calm 1.0 mph1.6 kmh 29.98 in1015.2 mb 0.00 in0.0 mm 0.00 in0.0 mm 0.00 in0.0 mm
09:45 AM 74.9°F23.8°C 31.1°F-0.5°C 20% Calm Calm 6.0 mph9.7 kmh 29.98 in1015.2 mb 0.00 in0.0 mm 0.00 in0.0 mm 0.00 in0.0 mm
09:50 AM 74.8°F23.8°C 32.2°F0.1°C 21% Calm Calm 6.0 mph9.7 kmh 29.99 in1015.6 mb 0.00 in0.0 mm 0.00 in0.0 mm 0.00 in0.0 mm
09:55 AM 74.8°F23.8°C 32.2°F0.1°C 21% Calm Calm -- 29.99 in1015.6 mb 0.00 in0.0 mm 0.00 in0.0 mm 0.00 in0.0 mm
10:00 AM 75.4°F24.1°C 31.5°F-0.3°C 20% Calm Calm 2.0 mph3.2 kmh 29.99 in1015.6 mb 0.00 in0.0 mm 0.00 in0.0 mm 0.00 in0.0 mm
10:05 AM 75.3°F24.1°C 31.4°F-0.3°C 20% Calm Calm 1.0 mph1.6 kmh 29.99 in1015.6 mb 0.00 in0.0 mm 0.00 in0.0 mm 0.00 in0.0 mm
10:10 AM 75.1°F23.9°C 31.2°F-0.4°C 20% Calm Calm 4.0 mph6.4 kmh 29.99 in1015.6 mb 0.00 in0.0 mm 0.00 in0.0 mm 0.00 in0.0 mm
10:15 AM 75.7°F24.3°C 31.7°F-0.2°C 20% Calm Calm 1.0 mph1.6 kmh 29.99 in1015.6 mb 0.00 in0.0 mm 0.00 in0.0 mm 0.00 in0.0 mm
10:20 AM 75.8°F24.3°C 31.8°F-0.1°C 20% Calm Calm 2.0 mph3.2 kmh 29.99 in1015.6 mb 0.00 in0.0 mm 0.00 in0.0 mm 0.00 in0.0 mm
10:25 AM 76.4°F24.7°C 32.3°F0.2°C 20% Calm Calm -- 29.99 in1015.6 mb 0.00 in0.0 mm 0.00 in0.0 mm 0.00 in0.0 mm
10:30 AM 76.2°F24.6°C 30.9°F-0.6°C 19% Calm Calm 3.0 mph4.8 kmh 29.98 in1015.2 mb 0.00 in0.0 mm 0.00 in0.0 mm 0.00 in0.0 mm
10:35 AM 76.3°F24.6°C 32.2°F0.1°C 20% Calm Calm -- 29.99 in1015.6 mb 0.00 in0.0 mm 0.00 in0.0 mm 0.00 in0.0 mm
10:40 AM 76.9°F24.9°C 31.4°F-0.3°C 19% Calm Calm 5.0 mph8.0 kmh 29.99 in1015.6 mb 0.00 in0.0 mm 0.00 in0.0 mm 0.00 in0.0 mm
10:45 AM 76.9°F24.9°C 31.4°F-0.3°C 19% Calm Calm 2.0 mph3.2 kmh 29.98 in1015.2 mb 0.00 in0.0 mm 0.00 in0.0 mm 0.00 in0.0 mm
10:50 AM 76.9°F24.9°C 31.4°F-0.3°C 19% Calm Calm 1.0 mph1.6 kmh 29.98 in1015.2 mb 0.00 in0.0 mm 0.00 in0.0 mm 0.00 in0.0 mm
10:55 AM 76.6°F24.8°C 31.2°F-0.4°C 19% Calm Calm 2.0 mph3.2 kmh 29.98 in1015.2 mb 0.00 in0.0 mm 0.00 in0.0 mm 0.00 in0.0 mm
11:00 AM 76.9°F24.9°C 31.4°F-0.3°C 19% Calm Calm -- 29.98 in1015.2 mb 0.00 in0.0 mm 0.00 in0.0 mm 0.00 in0.0 mm
11:05 AM 77.6°F25.3°C 30.7°F-0.7°C 18% Calm Calm 2.0 mph3.2 kmh 29.98 in1015.2 mb 0.00 in0.0 mm 0.00 in0.0 mm 0.00 in0.0 mm
11:10 AM 78.2°F25.7°C 31.2°F-0.4°C 18% 4.0 mph SW6.4 kmh SW 6.0 mph9.7 kmh 29.98 in1015.2 mb 0.00 in0.0 mm 0.00 in0.0 mm 0.00 in0.0 mm
11:15 AM 78.0°F25.6°C 29.6°F-1.3°C 17% Calm Calm 6.0 mph9.7 kmh 29.98 in1015.2 mb 0.00 in0.0 mm 0.00 in0.0 mm 0.00 in0.0 mm
11:20 AM 77.3°F25.2°C 30.4°F-0.9°C 18% Calm Calm 9.0 mph14.5 kmh 29.98 in1015.2 mb 0.00 in0.0 mm 0.00 in0.0 mm 0.00 in0.0 mm
11:25 AM 78.3°F25.7°C 29.8°F-1.2°C 17% Calm Calm 4.0 mph6.4 kmh 29.98 in1015.2 mb 0.00 in0.0 mm 0.00 in0.0 mm 0.00 in0.0 mm
11:30 AM 78.5°F25.8°C 30.0°F-1.1°C 17% Calm Calm 4.0 mph6.4 kmh 29.98 in1015.2 mb 0.00 in0.0 mm 0.00 in0.0 mm 0.00 in0.0 mm
11:35 AM 79.1°F26.2°C 30.5°F-0.8°C 17% Calm Calm 1.0 mph1.6 kmh 29.97 in1014.9 mb 0.00 in0.0 mm 0.00 in0.0 mm 0.00 in0.0 mm
11:40 AM 78.3°F25.7°C 29.8°F-1.2°C 17% Calm Calm 2.0 mph3.2 kmh 29.97 in1014.9 mb 0.00 in0.0 mm 0.00 in0.0 mm 0.00 in0.0 mm
11:45 AM 78.5°F25.8°C 30.0°F-1.1°C 17% Calm Calm 4.0 mph6.4 kmh 29.97 in1014.9 mb 0.00 in0.0 mm 0.00 in0.0 mm 0.00 in0.0 mm
11:50 AM 77.7°F25.4°C 29.4°F-1.4°C 17% Calm Calm -- 29.97 in1014.9 mb 0.00 in0.0 mm 0.00 in0.0 mm 0.00 in0.0 mm
11:55 AM 77.5°F25.3°C 29.2°F-1.6°C 17% Calm Calm -- 29.96 in1014.6 mb 0.00 in0.0 mm 0.00 in0.0 mm 0.00 in0.0 mm
12:00 PM 78.5°F25.8°C 30.0°F-1.1°C 17% 6.0 mph SSW9.7 kmh SSW 7.0 mph11.3 kmh 29.96 in1014.6 mb 0.00 in0.0 mm 0.00 in0.0 mm 0.00 in0.0 mm
12:05 PM 79.0°F26.1°C 30.4°F-0.9°C 17% Calm Calm 6.0 mph9.7 kmh 29.96 in1014.6 mb 0.00 in0.0 mm 0.00 in0.0 mm 0.00 in0.0 mm
12:10 PM 78.9°F26.1°C 28.8°F-1.8°C 16% Calm Calm 5.0 mph8.0 kmh 29.96 in1014.6 mb 0.00 in0.0 mm 0.00 in0.0 mm 0.00 in0.0 mm
12:15 PM 78.9°F26.1°C 28.8°F-1.8°C 16% Calm Calm 4.0 mph6.4 kmh 29.96 in1014.6 mb 0.00 in0.0 mm 0.00 in0.0 mm 0.00 in0.0 mm
12:20 PM 79.4°F26.3°C 30.7°F-0.7°C 17% 1.0 mph WSW1.6 kmh WSW 4.0 mph6.4 kmh 29.95 in1014.2 mb 0.00 in0.0 mm 0.00 in0.0 mm 0.00 in0.0 mm
12:25 PM 79.8°F26.6°C 28.0°F-2.2°C 15% Calm Calm 5.0 mph8.0 kmh 29.95 in1014.2 mb 0.00 in0.0 mm 0.00 in0.0 mm 0.00 in0.0 mm
12:30 PM 80.3°F26.8°C 30.0°F-1.1°C 16% Calm Calm 4.0 mph6.4 kmh 29.95 in1014.2 mb 0.00 in0.0 mm 0.00 in0.0 mm 0.00 in0.0 mm
12:35 PM 79.3°F26.3°C 27.6°F-2.4°C 15% Calm Calm -- 29.95 in1014.2 mb 0.00 in0.0 mm 0.00 in0.0 mm 0.00 in0.0 mm
12:40 PM 80.0°F26.7°C 28.1°F-2.2°C 15% 3.0 mph W4.8 kmh W 6.0 mph9.7 kmh 29.95 in1014.2 mb 0.00 in0.0 mm 0.00 in0.0 mm 0.00 in0.0 mm
12:45 PM 80.5°F26.9°C 30.1°F-1.1°C 16% 5.0 mph SW8.0 kmh SW 7.0 mph11.3 kmh 29.94 in1013.9 mb 0.00 in0.0 mm 0.00 in0.0 mm 0.00 in0.0 mm
12:50 PM 80.1°F26.7°C 28.2°F-2.1°C 15% Calm Calm 8.0 mph12.9 kmh 29.94 in1013.9 mb 0.00 in0.0 mm 0.00 in0.0 mm 0.00 in0.0 mm
12:55 PM 79.2°F26.2°C 27.5°F-2.5°C 15% Calm Calm 3.0 mph4.8 kmh 29.94 in1013.9 mb 0.00 in0.0 mm 0.00 in0.0 mm 0.00 in0.0 mm
01:00 PM 80.6°F27.0°C 26.9°F-2.8°C 14% Calm Calm 5.0 mph8.0 kmh 29.94 in1013.9 mb 0.00 in0.0 mm 0.00 in0.0 mm 0.00 in0.0 mm
01:05 PM 80.7°F27.1°C 28.7°F-1.8°C 15% Calm Calm 1.0 mph1.6 kmh 29.94 in1013.9 mb 0.00 in0.0 mm 0.00 in0.0 mm 0.00 in0.0 mm
01:10 PM 81.5°F27.5°C 27.6°F-2.4°C 14% Calm Calm -- 29.93 in1013.5 mb 0.00 in0.0 mm 0.00 in0.0 mm 0.00 in0.0 mm
01:15 PM 80.9°F27.2°C 28.9°F-1.7°C 15% Calm Calm -- 29.93 in1013.5 mb 0.00 in0.0 mm 0.00 in0.0 mm 0.00 in0.0 mm
01:20 PM 81.1°F27.3°C 29.0°F-1.7°C 15% Calm Calm -- 29.93 in1013.5 mb 0.00 in0.0 mm 0.00 in0.0 mm 0.00 in0.0 mm
01:25 PM 81.1°F27.3°C 29.0°F-1.7°C 15% Calm Calm 6.0 mph9.7 kmh 29.93 in1013.5 mb 0.00 in0.0 mm 0.00 in0.0 mm 0.00 in0.0 mm
01:30 PM 81.6°F27.6°C 27.7°F-2.4°C 14% Calm Calm 11.0 mph17.7 kmh 29.93 in1013.5 mb 0.00 in0.0 mm 0.00 in0.0 mm 0.00 in0.0 mm
01:35 PM 82.1°F27.8°C 29.8°F-1.2°C 15% Calm Calm 2.0 mph3.2 kmh 29.92 in1013.2 mb 0.00 in0.0 mm 0.00 in0.0 mm 0.00 in0.0 mm
01:40 PM 81.9°F27.7°C 28.0°F-2.2°C 14% Calm Calm -- 29.92 in1013.2 mb 0.00 in0.0 mm 0.00 in0.0 mm 0.00 in0.0 mm
01:45 PM 82.0°F27.8°C 28.0°F-2.2°C 14% 6.0 mph WSW9.7 kmh WSW 6.0 mph9.7 kmh 29.92 in1013.2 mb 0.00 in0.0 mm 0.00 in0.0 mm 0.00 in0.0 mm
01:50 PM 81.9°F27.7°C 28.0°F-2.2°C 14% 3.0 mph WNW4.8 kmh WNW 6.0 mph9.7 kmh 29.92 in1013.2 mb 0.00 in0.0 mm 0.00 in0.0 mm 0.00 in0.0 mm
01:55 PM 82.7°F28.2°C 28.6°F-1.9°C 14% 2.0 mph NW3.2 kmh NW 7.0 mph11.3 kmh 29.91 in1012.9 mb 0.00 in0.0 mm 0.00 in0.0 mm 0.00 in0.0 mm
02:00 PM 82.0°F27.8°C 28.0°F-2.2°C 14% Calm Calm 3.0 mph4.8 kmh 29.91 in1012.9 mb 0.00 in0.0 mm 0.00 in0.0 mm 0.00 in0.0 mm
02:05 PM 81.9°F27.7°C 29.6°F-1.3°C 15% Calm Calm -- 29.91 in1012.9 mb 0.00 in0.0 mm 0.00 in0.0 mm 0.00 in0.0 mm
02:10 PM 82.3°F27.9°C 28.3°F-2.1°C 14% 5.0 mph W8.0 kmh W 6.0 mph9.7 kmh 29.91 in1012.9 mb 0.00 in0.0 mm 0.00 in0.0 mm 0.00 in0.0 mm
02:15 PM 82.7°F28.2°C 28.6°F-1.9°C 14% Calm Calm 7.0 mph11.3 kmh 29.90 in1012.5 mb 0.00 in0.0 mm 0.00 in0.0 mm 0.00 in0.0 mm
02:20 PM 81.8°F27.7°C 27.9°F-2.3°C 14% 4.0 mph WSW6.4 kmh WSW 10.0 mph16.1 kmh 29.90 in1012.5 mb 0.00 in0.0 mm 0.00 in0.0 mm 0.00 in0.0 mm
02:25 PM 81.8°F27.7°C 27.9°F-2.3°C 14% 5.0 mph SW8.0 kmh SW 8.0 mph12.9 kmh 29.90 in1012.5 mb 0.00 in0.0 mm 0.00 in0.0 mm 0.00 in0.0 mm
02:30 PM 82.0°F27.8°C 28.0°F-2.2°C 14% Calm Calm 5.0 mph8.0 kmh 29.90 in1012.5 mb 0.00 in0.0 mm 0.00 in0.0 mm 0.00 in0.0 mm
02:35 PM 81.4°F27.4°C 27.6°F-2.4°C 14% Calm Calm 8.0 mph12.9 kmh 29.90 in1012.5 mb 0.00 in0.0 mm 0.00 in0.0 mm 0.00 in0.0 mm
02:40 PM 81.1°F27.3°C 27.3°F-2.6°C 14% Calm Calm 4.0 mph6.4 kmh 29.89 in1012.2 mb 0.00 in0.0 mm 0.00 in0.0 mm 0.00 in0.0 mm
02:45 PM 80.9°F27.2°C 28.9°F-1.7°C 15% Calm Calm -- 29.89 in1012.2 mb 0.00 in0.0 mm 0.00 in0.0 mm 0.00 in0.0 mm
02:50 PM 82.2°F27.9°C 28.2°F-2.1°C 14% Calm Calm 1.0 mph1.6 kmh 29.89 in1012.2 mb 0.00 in0.0 mm 0.00 in0.0 mm 0.00 in0.0 mm
02:55 PM 82.3°F27.9°C 28.3°F-2.1°C 14% 5.0 mph NW8.0 kmh NW 18.0 mph29.0 kmh 29.88 in1011.9 mb 0.00 in0.0 mm 0.00 in0.0 mm 0.00 in0.0 mm
03:00 PM 82.5°F28.1°C 28.4°F-2.0°C 14% Calm Calm 18.0 mph29.0 kmh 29.88 in1011.9 mb 0.00 in0.0 mm 0.00 in0.0 mm 0.00 in0.0 mm
03:05 PM 81.9°F27.7°C 28.0°F-2.2°C 14% Calm Calm 4.0 mph6.4 kmh 29.88 in1011.9 mb 0.00 in0.0 mm 0.00 in0.0 mm 0.00 in0.0 mm
03:10 PM 82.0°F27.8°C 26.2°F-3.2°C 13% 1.0 mph W1.6 kmh W 5.0 mph8.0 kmh 29.88 in1011.9 mb 0.00 in0.0 mm 0.00 in0.0 mm 0.00 in0.0 mm
03:15 PM 82.3°F27.9°C 28.3°F-2.1°C 14% Calm Calm 6.0 mph9.7 kmh 29.88 in1011.9 mb 0.00 in0.0 mm 0.00 in0.0 mm 0.00 in0.0 mm
03:20 PM 82.8°F28.2°C 26.9°F-2.8°C 13% 5.0 mph WSW8.0 kmh WSW 10.0 mph16.1 kmh 29.87 in1011.5 mb 0.00 in0.0 mm 0.00 in0.0 mm 0.00 in0.0 mm
03:25 PM 82.0°F27.8°C 26.2°F-3.2°C 13% Calm Calm 7.0 mph11.3 kmh 29.87 in1011.5 mb 0.00 in0.0 mm 0.00 in0.0 mm 0.00 in0.0 mm
03:30 PM 82.3°F27.9°C 28.3°F-2.1°C 14% Calm Calm 4.0 mph6.4 kmh 29.87 in1011.5 mb 0.00 in0.0 mm 0.00 in0.0 mm 0.00 in0.0 mm
03:35 PM 82.6°F28.1°C 26.7°F-2.9°C 13% Calm Calm 6.0 mph9.7 kmh 29.87 in1011.5 mb 0.00 in0.0 mm 0.00 in0.0 mm 0.00 in0.0 mm
03:40 PM 83.1°F28.4°C 28.9°F-1.7°C 14% Calm Calm -- 29.86 in1011.2 mb 0.00 in0.0 mm 0.00 in0.0 mm 0.00 in0.0 mm
03:45 PM 82.2°F27.9°C 28.2°F-2.1°C 14% Calm Calm -- 29.86 in1011.2 mb 0.00 in0.0 mm 0.00 in0.0 mm 0.00 in0.0 mm
03:50 PM 81.5°F27.5°C 27.6°F-2.4°C 14% Calm Calm -- 29.86 in1011.2 mb 0.00 in0.0 mm 0.00 in0.0 mm 0.00 in0.0 mm
03:55 PM 81.6°F27.6°C 27.7°F-2.4°C 14% Calm Calm -- 29.86 in1011.2 mb 0.00 in0.0 mm 0.00 in0.0 mm 0.00 in0.0 mm
04:00 PM 82.0°F27.8°C 28.0°F-2.2°C 14% 4.0 mph WSW6.4 kmh WSW 6.0 mph9.7 kmh 29.85 in1010.8 mb 0.00 in0.0 mm 0.00 in0.0 mm 0.00 in0.0 mm
04:05 PM 82.6°F28.1°C 26.7°F-2.9°C 13% Calm Calm 8.0 mph12.9 kmh 29.85 in1010.8 mb 0.00 in0.0 mm 0.00 in0.0 mm 0.00 in0.0 mm
04:10 PM 82.2°F27.9°C 26.4°F-3.1°C 13% Calm Calm -- 29.85 in1010.8 mb 0.00 in0.0 mm 0.00 in0.0 mm 0.00 in0.0 mm
04:15 PM 82.9°F28.3°C 28.8°F-1.8°C 14% Calm Calm 2.0 mph3.2 kmh 29.85 in1010.8 mb 0.00 in0.0 mm 0.00 in0.0 mm 0.00 in0.0 mm
04:20 PM 82.6°F28.1°C 26.7°F-2.9°C 13% Calm Calm 6.0 mph9.7 kmh 29.85 in1010.8 mb 0.00 in0.0 mm 0.00 in0.0 mm 0.00 in0.0 mm
04:25 PM 82.1°F27.8°C 26.3°F-3.2°C 13% Calm Calm 5.0 mph8.0 kmh 29.85 in1010.8 mb 0.00 in0.0 mm 0.00 in0.0 mm 0.00 in0.0 mm
04:30 PM 81.6°F27.6°C 27.7°F-2.4°C 14% Calm Calm -- 29.84 in1010.5 mb 0.00 in0.0 mm 0.00 in0.0 mm 0.00 in0.0 mm
04:35 PM 82.1°F27.8°C 26.3°F-3.2°C 13% Calm Calm 3.0 mph4.8 kmh 29.84 in1010.5 mb 0.00 in0.0 mm 0.00 in0.0 mm 0.00 in0.0 mm
04:40 PM 82.4°F28.0°C 28.4°F-2.0°C 14% Calm Calm 7.0 mph11.3 kmh 29.84 in1010.5 mb 0.00 in0.0 mm 0.00 in0.0 mm 0.00 in0.0 mm
04:45 PM 82.4°F28.0°C 26.6°F-3.0°C 13% Calm Calm 4.0 mph6.4 kmh 29.84 in1010.5 mb 0.00 in0.0 mm 0.00 in0.0 mm 0.00 in0.0 mm
04:50 PM 82.6°F28.1°C 26.7°F-2.9°C 13% Calm Calm 4.0 mph6.4 kmh 29.84 in1010.5 mb 0.00 in0.0 mm 0.00 in0.0 mm 0.00 in0.0 mm
04:55 PM 82.3°F27.9°C 26.5°F-3.1°C 13% Calm Calm -- 29.84 in1010.5 mb 0.00 in0.0 mm 0.00 in0.0 mm 0.00 in0.0 mm
05:00 PM 82.1°F27.8°C 28.1°F-2.2°C 14% Calm Calm 3.0 mph4.8 kmh 29.84 in1010.5 mb 0.00 in0.0 mm 0.00 in0.0 mm 0.00 in0.0 mm
05:05 PM 82.0°F27.8°C 28.0°F-2.2°C 14% Calm Calm -- 29.84 in1010.5 mb 0.00 in0.0 mm 0.00 in0.0 mm 0.00 in0.0 mm
05:10 PM 81.4°F27.4°C 27.6°F-2.4°C 14% Calm Calm -- 29.84 in1010.5 mb 0.00 in0.0 mm 0.00 in0.0 mm 0.00 in0.0 mm
05:15 PM 81.6°F27.6°C 25.9°F-3.4°C 13% Calm Calm -- 29.84 in1010.5 mb 0.00 in0.0 mm 0.00 in0.0 mm 0.00 in0.0 mm
05:20 PM 81.5°F27.5°C 27.6°F-2.4°C 14% 2.0 mph SW3.2 kmh SW 5.0 mph8.0 kmh 29.84 in1010.5 mb 0.00 in0.0 mm 0.00 in0.0 mm 0.00 in0.0 mm
05:25 PM 81.2°F27.3°C 27.4°F-2.6°C 14% Calm Calm 3.0 mph4.8 kmh 29.84 in1010.5 mb 0.00 in0.0 mm 0.00 in0.0 mm 0.00 in0.0 mm
05:30 PM 80.9°F27.2°C 27.2°F-2.7°C 14% Calm Calm -- 29.84 in1010.5 mb 0.00 in0.0 mm 0.00 in0.0 mm 0.00 in0.0 mm
05:35 PM 80.9°F27.2°C 28.9°F-1.7°C 15% Calm Calm -- 29.83 in1010.2 mb 0.00 in0.0 mm 0.00 in0.0 mm 0.00 in0.0 mm
05:40 PM 80.7°F27.1°C 27.0°F-2.8°C 14% Calm Calm -- 29.83 in1010.2 mb 0.00 in0.0 mm 0.00 in0.0 mm 0.00 in0.0 mm
05:45 PM 80.3°F26.8°C 26.7°F-2.9°C 14% Calm Calm -- 29.83 in1010.2 mb 0.00 in0.0 mm 0.00 in0.0 mm 0.00 in0.0 mm
05:50 PM 80.0°F26.7°C 28.1°F-2.2°C 15% Calm Calm -- 29.83 in1010.2 mb 0.00 in0.0 mm 0.00 in0.0 mm 0.00 in0.0 mm
05:55 PM 80.0°F26.7°C 26.5°F-3.1°C 14% Calm Calm -- 29.83 in1010.2 mb 0.00 in0.0 mm 0.00 in0.0 mm 0.00 in0.0 mm
06:00 PM 79.9°F26.6°C 26.4°F-3.1°C 14% Calm Calm -- 29.83 in1010.2 mb 0.00 in0.0 mm 0.00 in0.0 mm 0.00 in0.0 mm
06:05 PM 79.8°F26.6°C 28.0°F-2.2°C 15% Calm Calm -- 29.83 in1010.2 mb 0.00 in0.0 mm 0.00 in0.0 mm 0.00 in0.0 mm
06:10 PM 79.6°F26.4°C 27.8°F-2.3°C 15% Calm Calm -- 29.83 in1010.2 mb 0.00 in0.0 mm 0.00 in0.0 mm 0.00 in0.0 mm
06:15 PM 79.5°F26.4°C 27.7°F-2.4°C 15% Calm Calm -- 29.83 in1010.2 mb 0.00 in0.0 mm 0.00 in0.0 mm 0.00 in0.0 mm
06:20 PM 79.3°F26.3°C 27.6°F-2.4°C 15% Calm Calm -- 29.83 in1010.2 mb 0.00 in0.0 mm 0.00 in0.0 mm 0.00 in0.0 mm
06:25 PM 79.1°F26.2°C 27.4°F-2.6°C 15% Calm Calm -- 29.82 in1009.8 mb 0.00 in0.0 mm 0.00 in0.0 mm 0.00 in0.0 mm
06:30 PM 78.9°F26.1°C 28.8°F-1.8°C 16% Calm Calm -- 29.82 in1009.8 mb 0.00 in0.0 mm 0.00 in0.0 mm 0.00 in0.0 mm
06:35 PM 78.5°F25.8°C 28.5°F-1.9°C 16% Calm Calm -- 29.82 in1009.8 mb 0.00 in0.0 mm 0.00 in0.0 mm 0.00 in0.0 mm
06:40 PM 78.2°F25.7°C 29.8°F-1.2°C 17% Calm Calm -- 29.82 in1009.8 mb 0.00 in0.0 mm 0.00 in0.0 mm 0.00 in0.0 mm
06:45 PM 77.6°F25.3°C 32.0°F0.0°C 19% Calm Calm -- 29.82 in1009.8 mb 0.00 in0.0 mm 0.00 in0.0 mm 0.00 in0.0 mm
06:50 PM 76.7°F24.8°C 31.3°F-0.4°C 19% Calm Calm -- 29.82 in1009.8 mb 0.00 in0.0 mm 0.00 in0.0 mm 0.00 in0.0 mm
06:55 PM 76.1°F24.5°C 30.8°F-0.7°C 19% Calm Calm -- 29.82 in1009.8 mb 0.00 in0.0 mm 0.00 in0.0 mm 0.00 in0.0 mm
07:00 PM 75.9°F24.4°C 30.6°F-0.8°C 19% Calm Calm -- 29.82 in1009.8 mb 0.00 in0.0 mm 0.00 in0.0 mm 0.00 in0.0 mm
07:05 PM 75.9°F24.4°C 31.9°F-0.1°C 20% Calm Calm -- 29.82 in1009.8 mb 0.00 in0.0 mm 0.00 in0.0 mm 0.00 in0.0 mm
07:10 PM 75.6°F24.2°C 31.6°F-0.2°C 20% Calm Calm -- 29.82 in1009.8 mb 0.00 in0.0 mm 0.00 in0.0 mm 0.00 in0.0 mm
07:15 PM 75.1°F23.9°C 31.2°F-0.4°C 20% Calm Calm -- 29.82 in1009.8 mb 0.00 in0.0 mm 0.00 in0.0 mm 0.00 in0.0 mm
07:20 PM 74.5°F23.6°C 30.7°F-0.7°C 20% Calm Calm -- 29.82 in1009.8 mb 0.00 in0.0 mm 0.00 in0.0 mm 0.00 in0.0 mm
07:25 PM 74.0°F23.3°C 30.3°F-0.9°C 20% Calm Calm -- 29.82 in1009.8 mb 0.00 in0.0 mm 0.00 in0.0 mm 0.00 in0.0 mm
07:30 PM 73.5°F23.1°C 29.9°F-1.2°C 20% Calm Calm -- 29.82 in1009.8 mb 0.00 in0.0 mm 0.00 in0.0 mm 0.00 in0.0 mm
07:35 PM 73.0°F22.8°C 29.5°F-1.4°C 20% Calm Calm -- 29.82 in1009.8 mb 0.00 in0.0 mm 0.00 in0.0 mm 0.00 in0.0 mm
07:40 PM 72.8°F22.7°C 29.3°F-1.5°C 20% Calm Calm -- 29.82 in1009.8 mb 0.00 in0.0 mm 0.00 in0.0 mm 0.00 in0.0 mm
07:45 PM 72.7°F22.6°C 31.6°F-0.2°C 22% Calm Calm -- 29.82 in1009.8 mb 0.00 in0.0 mm 0.00 in0.0 mm 0.00 in0.0 mm
07:50 PM 72.6°F22.6°C 31.5°F-0.3°C 22% Calm Calm -- 29.82 in1009.8 mb 0.00 in0.0 mm 0.00 in0.0 mm 0.00 in0.0 mm
07:55 PM 72.2°F22.3°C 30.0°F-1.1°C 21% Calm Calm -- 29.82 in1009.8 mb 0.00 in0.0 mm 0.00 in0.0 mm 0.00 in0.0 mm
08:00 PM 71.9°F22.2°C 30.9°F-0.6°C 22% Calm Calm -- 29.82 in1009.8 mb 0.00 in0.0 mm 0.00 in0.0 mm 0.00 in0.0 mm
08:05 PM 71.6°F22.0°C 31.8°F-0.1°C 23% Calm Calm -- 29.83 in1010.2 mb 0.00 in0.0 mm 0.00 in0.0 mm 0.00 in0.0 mm
08:10 PM 71.3°F21.8°C 30.4°F-0.9°C 22% Calm Calm -- 29.82 in1009.8 mb 0.00 in0.0 mm 0.00 in0.0 mm 0.00 in0.0 mm
08:15 PM 71.1°F21.7°C 30.3°F-0.9°C 22% Calm Calm -- 29.83 in1010.2 mb 0.00 in0.0 mm 0.00 in0.0 mm 0.00 in0.0 mm
08:20 PM 70.7°F21.5°C 32.1°F0.1°C 24% Calm Calm -- 29.82 in1009.8 mb 0.00 in0.0 mm 0.00 in0.0 mm 0.00 in0.0 mm
08:25 PM 70.1°F21.2°C 31.6°F-0.2°C 24% Calm Calm -- 29.83 in1010.2 mb 0.00 in0.0 mm 0.00 in0.0 mm 0.00 in0.0 mm
08:30 PM 69.5°F20.8°C 32.1°F0.1°C 25% Calm Calm -- 29.83 in1010.2 mb 0.00 in0.0 mm 0.00 in0.0 mm 0.00 in0.0 mm
08:35 PM 68.9°F20.5°C 31.6°F-0.2°C 25% Calm Calm -- 29.83 in1010.2 mb 0.00 in0.0 mm 0.00 in0.0 mm 0.00 in0.0 mm
08:40 PM 68.4°F20.2°C 32.1°F0.1°C 26% Calm Calm -- 29.83 in1010.2 mb 0.00 in0.0 mm 0.00 in0.0 mm 0.00 in0.0 mm
08:45 PM 68.0°F20.0°C 31.8°F-0.1°C 26% Calm Calm -- 29.84 in1010.5 mb 0.00 in0.0 mm 0.00 in0.0 mm 0.00 in0.0 mm
08:50 PM 67.6°F19.8°C 32.4°F0.2°C 27% Calm Calm -- 29.83 in1010.2 mb 0.00 in0.0 mm 0.00 in0.0 mm 0.00 in0.0 mm
08:55 PM 67.2°F19.6°C 32.0°F0.0°C 27% Calm Calm -- 29.84 in1010.5 mb 0.00 in0.0 mm 0.00 in0.0 mm 0.00 in0.0 mm
09:00 PM 66.8°F19.3°C 31.7°F-0.2°C 27% Calm Calm -- 29.84 in1010.5 mb 0.00 in0.0 mm 0.00 in0.0 mm 0.00 in0.0 mm
09:05 PM 66.5°F19.2°C 31.4°F-0.3°C 27% Calm Calm -- 29.84 in1010.5 mb 0.00 in0.0 mm 0.00 in0.0 mm 0.00 in0.0 mm
09:10 PM 66.3°F19.1°C 31.3°F-0.4°C 27% Calm Calm -- 29.84 in1010.5 mb 0.00 in0.0 mm 0.00 in0.0 mm 0.00 in0.0 mm
09:15 PM 66.1°F18.9°C 32.0°F0.0°C 28% Calm Calm -- 29.84 in1010.5 mb 0.00 in0.0 mm 0.00 in0.0 mm 0.00 in0.0 mm
09:20 PM 65.9°F18.8°C 31.8°F-0.1°C 28% Calm Calm -- 29.84 in1010.5 mb 0.00 in0.0 mm 0.00 in0.0 mm 0.00 in0.0 mm
09:25 PM 65.7°F18.7°C 31.7°F-0.2°C 28% Calm Calm -- 29.84 in1010.5 mb 0.00 in0.0 mm 0.00 in0.0 mm 0.00 in0.0 mm
09:30 PM 65.5°F18.6°C 31.5°F-0.3°C 28% Calm Calm -- 29.84 in1010.5 mb 0.00 in0.0 mm 0.00 in0.0 mm 0.00 in0.0 mm
09:35 PM 65.3°F18.5°C 31.3°F-0.4°C 28% Calm Calm -- 29.84 in1010.5 mb 0.00 in0.0 mm 0.00 in0.0 mm 0.00 in0.0 mm
09:40 PM 65.2°F18.4°C 32.1°F0.1°C 29% Calm Calm -- 29.84 in1010.5 mb 0.00 in0.0 mm 0.00 in0.0 mm 0.00 in0.0 mm
09:45 PM 65.0°F18.3°C 31.9°F-0.1°C 29% Calm Calm -- 29.84 in1010.5 mb 0.00 in0.0 mm 0.00 in0.0 mm 0.00 in0.0 mm
09:50 PM 64.8°F18.2°C 31.7°F-0.2°C 29% Calm Calm -- 29.84 in1010.5 mb 0.00 in0.0 mm 0.00 in0.0 mm 0.00 in0.0 mm
09:55 PM 64.6°F18.1°C 31.6°F-0.2°C 29% Calm Calm -- 29.84 in1010.5 mb 0.00 in0.0 mm 0.00 in0.0 mm 0.00 in0.0 mm
10:00 PM 64.3°F17.9°C 31.3°F-0.4°C 29% Calm Calm -- 29.84 in1010.5 mb 0.00 in0.0 mm 0.00 in0.0 mm 0.00 in0.0 mm
10:05 PM 64.2°F17.9°C 30.4°F-0.9°C 28% Calm Calm -- 29.84 in1010.5 mb 0.00 in0.0 mm 0.00 in0.0 mm 0.00 in0.0 mm
10:10 PM 64.2°F17.9°C 30.4°F-0.9°C 28% Calm Calm -- 29.84 in1010.5 mb 0.00 in0.0 mm 0.00 in0.0 mm 0.00 in0.0 mm
10:15 PM 64.3°F17.9°C 30.4°F-0.9°C 28% Calm Calm -- 29.84 in1010.5 mb 0.00 in0.0 mm 0.00 in0.0 mm 0.00 in0.0 mm
10:20 PM 64.4°F18.0°C 30.5°F-0.8°C 28% Calm Calm -- 29.84 in1010.5 mb 0.00 in0.0 mm 0.00 in0.0 mm 0.00 in0.0 mm
10:25 PM 64.4°F18.0°C 30.5°F-0.8°C 28% Calm Calm -- 29.84 in1010.5 mb 0.00 in0.0 mm 0.00 in0.0 mm 0.00 in0.0 mm
10:30 PM 64.4°F18.0°C 30.5°F-0.8°C 28% Calm Calm -- 29.84 in1010.5 mb 0.00 in0.0 mm 0.00 in0.0 mm 0.00 in0.0 mm
10:35 PM 64.5°F18.1°C 29.7°F-1.3°C 27% Calm Calm -- 29.84 in1010.5 mb 0.00 in0.0 mm 0.00 in0.0 mm 0.00 in0.0 mm
10:40 PM 64.5°F18.1°C 29.7°F-1.3°C 27% Calm Calm -- 29.84 in1010.5 mb 0.00 in0.0 mm 0.00 in0.0 mm 0.00 in0.0 mm
10:45 PM 64.6°F18.1°C 29.8°F-1.2°C 27% Calm Calm -- 29.84 in1010.5 mb 0.00 in0.0 mm 0.00 in0.0 mm 0.00 in0.0 mm
10:50 PM 64.7°F18.2°C 29.9°F-1.2°C 27% Calm Calm -- 29.84 in1010.5 mb 0.00 in0.0 mm 0.00 in0.0 mm 0.00 in0.0 mm
10:55 PM 64.8°F18.2°C 30.0°F-1.1°C 27% Calm Calm -- 29.84 in1010.5 mb 0.00 in0.0 mm 0.00 in0.0 mm 0.00 in0.0 mm
11:00 PM 64.8°F18.2°C 30.0°F-1.1°C 27% Calm Calm -- 29.84 in1010.5 mb 0.00 in0.0 mm 0.00 in0.0 mm 0.00 in0.0 mm
11:05 PM 64.9°F18.3°C 30.1°F-1.1°C 27% Calm Calm -- 29.84 in1010.5 mb 0.00 in0.0 mm 0.00 in0.0 mm 0.00 in0.0 mm
11:10 PM 64.8°F18.2°C 30.0°F-1.1°C 27% Calm Calm -- 29.84 in1010.5 mb 0.00 in0.0 mm 0.00 in0.0 mm 0.00 in0.0 mm
11:15 PM 64.8°F18.2°C 30.0°F-1.1°C 27% Calm Calm -- 29.84 in1010.5 mb 0.00 in0.0 mm 0.00 in0.0 mm 0.00 in0.0 mm
11:20 PM 64.7°F18.2°C 29.9°F-1.2°C 27% Calm Calm -- 29.84 in1010.5 mb 0.00 in0.0 mm 0.00 in0.0 mm 0.00 in0.0 mm
11:25 PM 64.6°F18.1°C 29.8°F-1.2°C 27% Calm Calm -- 29.84 in1010.5 mb 0.00 in0.0 mm 0.00 in0.0 mm 0.00 in0.0 mm
11:30 PM 64.5°F18.1°C 30.6°F-0.8°C 28% Calm Calm -- 29.84 in1010.5 mb 0.00 in0.0 mm 0.00 in0.0 mm 0.00 in0.0 mm
11:35 PM 64.4°F18.0°C 30.5°F-0.8°C 28% Calm Calm -- 29.84 in1010.5 mb 0.00 in0.0 mm 0.00 in0.0 mm 0.00 in0.0 mm
11:40 PM 64.3°F17.9°C 30.4°F-0.9°C 28% Calm Calm -- 29.84 in1010.5 mb 0.00 in0.0 mm 0.00 in0.0 mm 0.00 in0.0 mm
11:45 PM 64.1°F17.8°C 30.3°F-0.9°C 28% Calm Calm -- 29.84 in1010.5 mb 0.00 in0.0 mm 0.00 in0.0 mm 0.00 in0.0 mm
11:50 PM 63.8°F17.7°C 30.0°F-1.1°C 28% Calm Calm -- 29.84 in1010.5 mb 0.00 in0.0 mm 0.00 in0.0 mm 0.00 in0.0 mm
11:55 PM 63.6°F17.6°C 30.7°F-0.7°C 29% Calm Calm -- 29.84 in1010.5 mb 0.00 in0.0 mm 0.00 in0.0 mm 0.00 in0.0 mm